Time;durP1;ratioP1;P1;durP2;ratioP2;P2;SDS_P1;SDS_P2;PMS_P1;PMS_P2;Temp;Humidity;BMP_temperature;BMP_pressure;BME280_temperature;BME280_humidity;BME280_pressure;Samples;Min_cycle;Max_cycle;Signal;HPM_P1;HPM_P2
2022/12/08 00:01:10;;;;;;;20.50;12.43;;;5.80;99.80;;;;;;20910995;28;20640;-68
2022/12/08 00:11:13;;;;;;;21.57;13.50;;;5.30;99.50;;;;;;20912332;28;20704;-69
2022/12/08 00:21:15;;;;;;;21.10;12.30;;;5.30;99.40;;;;;;20912262;28;20226;-69
2022/12/08 00:31:16;;;;;;;19.90;12.73;;;5.30;99.40;;;;;;20911380;28;20237;-69
2022/12/08 00:42:10;;;;;;;22.17;12.10;;;5.30;99.40;;;;;;20911131;28;20755;-69
2022/12/08 00:51:43;;;;;;;19.70;11.67;;;;;;;;;;20917962;28;20213;-69
2022/12/08 01:01:45;;;;;;;21.57;11.87;;;;;;;;;;20925668;28;20968;-68
2022/12/08 01:11:47;;;;;;;19.03;12.13;;;5.20;99.30;;;;;;20924893;28;20227;-69
2022/12/08 01:21:49;;;;;;;19.80;11.33;;;5.20;99.20;;;;;;20924105;28;20236;-68
2022/12/08 01:31:50;;;;;;;19.07;11.33;;;5.20;99.20;;;;;;20923589;28;20721;-67
2022/12/08 01:41:52;;;;;;;18.20;11.33;;;5.10;99.10;;;;;;20922497;28;20646;-69
2022/12/08 01:52:01;;;;;;;19.90;11.30;;;5.10;99.10;;;;;;20921956;28;20267;-70
2022/12/08 02:02:03;;;;;;;22.30;12.40;;;;;;;;;;20921086;28;20235;-68
2022/12/08 02:12:06;;;;;;;18.30;11.03;;;5.00;99.10;;;;;;20920528;28;20567;-69
2022/12/08 02:22:17;;;;;;;19.60;11.30;;;5.00;99.00;;;;;;20919526;28;20278;-69
2022/12/08 02:32:21;;;;;;;21.40;11.63;;;5.00;99.00;;;;;;20919115;28;20212;-70
2022/12/08 02:42:29;;;;;;;21.60;12.33;;;5.00;99.30;;;;;;20917508;28;20238;-69
2022/12/08 02:52:31;;;;;;;23.23;12.20;;;;;;;;;;20917483;28;20257;-71
2022/12/08 03:03:00;;;;;;;21.40;12.23;;;4.90;99.30;;;;;;20916894;28;20246;-72
2022/12/08 03:13:13;;;;;;;20.43;11.37;;;5.00;99.30;;;;;;20915885;28;20210;-71
2022/12/08 03:23:16;;;;;;;23.83;12.03;;;5.00;99.30;;;;;;20914650;28;20365;-72
2022/12/08 03:33:24;;;;;;;20.43;12.50;;;4.90;99.20;;;;;;20914309;28;20668;-70
2022/12/08 03:43:25;;;;;;;18.77;11.70;;;4.90;99.20;;;;;;20913474;28;20780;-71
2022/12/08 03:53:27;;;;;;;19.70;11.83;;;5.00;99.20;;;;;;20912991;28;20203;-71
2022/12/08 04:03:29;;;;;;;20.40;11.33;;;;;;;;;;20912619;28;20289;-72
2022/12/08 04:13:32;;;;;;;19.47;10.80;;;5.70;99.50;;;;;;20912174;28;20200;-71
2022/12/08 04:23:34;;;;;;;21.03;10.90;;;;;;;;;;20914314;28;20243;-70
2022/12/08 04:33:36;;;;;;;20.93;10.93;;;4.80;99.30;;;;;;20928217;28;20216;-72
2022/12/08 04:43:38;;;;;;;17.67;10.17;;;4.90;99.40;;;;;;20927183;28;20281;-72
2022/12/08 04:53:40;;;;;;;16.77;10.10;;;;;;;;;;20926380;28;20206;-69
2022/12/08 05:03:47;;;;;;;14.53;9.40;;;;;;;;;;20925793;28;20240;-68
2022/12/08 05:13:49;;;;;;;16.87;9.63;;;;;;;;;;20924553;28;20212;-72
2022/12/08 05:23:51;;;;;;;13.67;9.07;;;4.80;99.40;;;;;;20923102;28;20233;-70
2022/12/08 05:33:53;;;;;;;17.43;9.20;;;4.80;99.60;;;;;;20923060;28;20209;-72
2022/12/08 05:44:00;;;;;;;15.20;9.30;;;4.80;99.50;;;;;;20922303;28;20238;-72
2022/12/08 05:54:02;;;;;;;23.50;9.37;;;;;;;;;;20921499;28;20266;-71
2022/12/08 06:04:04;;;;;;;14.23;9.10;;;4.40;99.20;;;;;;20918973;28;20237;-72
2022/12/08 06:14:10;;;;;;;14.20;8.43;;;4.70;99.30;;;;;;20918680;28;20253;-72
2022/12/08 06:24:12;;;;;;;14.20;8.57;;;;;;;;;;20918840;28;20240;-72
2022/12/08 06:34:14;;;;;;;14.13;8.07;;;;;;;;;;20919054;28;20618;-72
2022/12/08 06:44:16;;;;;;;13.43;8.03;;;4.60;99.50;;;;;;20923632;28;20285;-71
2022/12/08 06:54:18;;;;;;;13.57;7.80;;;;;;;;;;20915070;28;20211;-69
2022/12/08 07:04:20;;;;;;;15.63;8.50;;;;;;;;;;20915494;28;20268;-71
2022/12/08 07:14:23;;;;;;;14.63;8.40;;;;;;;;;;20915007;28;20200;-71
2022/12/08 07:24:25;;;;;;;14.37;8.60;;;;;;;;;;20913783;28;20228;-71
2022/12/08 07:34:28;;;;;;;15.40;8.63;;;;;;;;;;20913107;28;20220;-72
2022/12/08 07:44:30;;;;;;;12.70;8.10;;;;;;;;;;20912640;28;20275;-69
2022/12/08 07:54:32;;;;;;;13.27;7.77;;;;;;;;;;20911734;28;20207;-71
2022/12/08 08:04:34;;;;;;;13.03;8.50;;;;;;;;;;20911350;28;20769;-73
2022/12/08 08:14:36;;;;;;;14.57;8.50;;;;;;;;;;20910896;28;20211;-72
2022/12/08 08:24:38;;;;;;;13.97;7.53;;;5.10;98.80;;;;;;20910552;28;20239;-72
2022/12/08 08:34:45;;;;;;;13.60;8.43;;;5.20;98.70;;;;;;20910105;28;20220;-71
2022/12/08 08:44:47;;;;;;;13.63;7.90;;;;;;;;;;20909634;28;20240;-67
2022/12/08 08:54:49;;;;;;;12.97;8.63;;;;;;;;;;20908021;28;20257;-69
2022/12/08 09:04:51;;;;;;;15.00;9.07;;;5.20;98.40;;;;;;20907906;28;20248;-70
2022/12/08 09:14:53;;;;;;;13.57;8.30;;;5.40;98.40;;;;;;20919157;28;20474;-70
2022/12/08 09:24:55;;;;;;;14.60;9.40;;;;;;;;;;20923121;28;20240;-72
2022/12/08 09:34:57;;;;;;;12.20;8.20;;;;;;;;;;20921279;28;20211;-71
2022/12/08 09:45:10;;;;;;;13.33;8.33;;;5.80;98.00;;;;;;20921737;28;20238;-72
2022/12/08 09:55:45;;;;;;;15.17;8.83;;;5.80;97.70;;;;;;20921074;28;20217;-71
2022/12/08 10:06:06;;;;;;;14.33;7.77;;;5.80;97.50;;;;;;20914883;28;20246;-72
2022/12/08 10:16:17;;;;;;;12.50;7.47;;;5.80;97.40;;;;;;20920229;28;20201;-72
2022/12/08 10:26:31;;;;;;;11.60;7.87;;;5.80;97.30;;;;;;20919193;28;20285;-67
2022/12/08 10:36:55;;;;;;;15.53;8.30;;;6.00;97.50;;;;;;20917800;28;20209;-68
2022/12/08 10:47:41;;;;;;;13.80;8.00;;;6.00;97.20;;;;;;21067719;28;20557;-66
2022/12/08 10:57:47;;;;;;;14.57;7.93;;;6.10;97.20;;;;;;21066630;28;20552;-67
2022/12/08 11:07:52;;;;;;;13.53;8.60;;;6.20;97.00;;;;;;21065880;28;20248;-67
2022/12/08 11:18:07;;;;;;;12.73;8.10;;;6.30;96.90;;;;;;21064933;28;20217;-66
2022/12/08 11:36:14;;;;;;;12.47;8.57;;;6.30;96.60;;;;;;20983550;28;20937;-71
2022/12/08 11:46:26;;;;;;;11.60;7.83;;;6.30;96.70;;;;;;20983405;28;20619;-71
2022/12/08 11:56:34;;;;;;;10.73;6.77;;;6.30;96.80;;;;;;20981592;28;20210;-70
2022/12/08 12:17:05;;;;;;;9.10;6.63;;;6.30;96.40;;;;;;21067447;28;20655;-71
2022/12/08 12:27:13;;;;;;;9.97;7.10;;;6.20;96.20;;;;;;21062599;28;20233;-71
2022/12/08 12:37:40;;;;;;;9.63;7.20;;;6.10;96.20;;;;;;21065511;28;20213;-69
2022/12/08 12:47:55;;;;;;;13.17;8.00;;;6.30;96.40;;;;;;21064954;28;20232;-71
2022/12/08 12:58:02;;;;;;;10.70;7.40;;;6.20;96.30;;;;;;21064110;28;20205;-72
2022/12/08 13:08:21;;;;;;;17.53;8.93;;;6.20;96.10;;;;;;21062314;28;20237;-74
2022/12/08 13:18:23;;;;;;;11.03;7.57;;;;;;;;;;21061949;28;20268;-74
2022/12/08 13:28:28;;;;;;;10.67;7.10;;;6.30;95.80;;;;;;21005814;28;20580;-76
2022/12/08 13:38:34;;;;;;;11.70;6.70;;;6.40;95.90;;;;;;21004729;28;20610;-76
2022/12/08 13:48:45;;;;;;;10.37;6.47;;;6.70;95.90;;;;;;21003088;28;20248;-77
2022/12/08 13:59:29;;;;;;;10.00;6.50;;;6.80;95.60;;;;;;21005688;28;20209;-75
2022/12/08 14:09:35;;;;;;;9.77;6.07;;;6.70;95.40;;;;;;21003069;28;20239;-68
2022/12/08 14:19:37;;;;;;;10.60;6.73;;;6.60;95.40;;;;;;21002234;28;20262;-79
2022/12/08 14:29:48;;;;;;;10.17;6.60;;;7.40;95.70;;;;;;21001288;28;20268;-79
2022/12/08 14:39:51;;;;;;;9.50;6.47;;;6.60;95.30;;;;;;20997367;28;20198;-72
2022/12/08 14:49:53;;;;;;;12.40;7.10;;;;;;;;;;20994449;28;20639;-72
2022/12/08 14:59:55;;;;;;;10.70;7.07;;;6.30;95.30;;;;;;20997109;28;20358;-73
2022/12/08 15:18:11;;;;;;;11.70;7.07;;;5.90;95.20;;;;;;20984465;28;20554;-76
2022/12/08 15:28:16;;;;;;;11.07;6.50;;;5.70;95.30;;;;;;20981213;28;20223;-74
2022/12/08 15:38:27;;;;;;;11.07;6.93;;;5.50;95.30;;;;;;20980319;28;20213;-70
2022/12/08 15:48:29;;;;;;;12.00;6.33;;;5.30;95.30;;;;;;20967319;28;20641;-70
2022/12/08 15:58:31;;;;;;;13.40;6.40;;;;;;;;;;20979628;28;20212;-71
2022/12/08 16:08:53;;;;;;;14.30;8.17;;;;;;;;;;20977443;28;20665;-72
2022/12/08 16:19:14;;;;;;;10.77;6.90;;;5.20;95.20;;;;;;20977153;28;20567;-71
2022/12/08 16:29:19;;;;;;;12.03;7.43;;;5.20;95.30;;;;;;20922373;28;20280;-70
2022/12/08 16:39:21;;;;;;;11.47;7.67;;;5.30;95.40;;;;;;20921154;28;20208;-70
2022/12/08 16:49:23;;;;;;;13.67;8.53;;;;;;;;;;20921841;28;20235;-71
2022/12/08 17:06:51;;;;;;;15.83;8.53;;;5.50;95.50;;;;;;20982899;28;20575;-70
2022/12/08 17:16:53;;;;;;;15.30;9.33;;;5.50;95.50;;;;;;20981998;28;20206;-69
2022/12/08 17:27:03;;;;;;;14.40;9.27;;;5.50;95.60;;;;;;20934422;28;20265;-71
2022/12/08 17:37:05;;;;;;;16.67;10.10;;;6.00;95.80;;;;;;20973052;28;20228;-79
2022/12/08 17:47:07;;;;;;;16.10;10.00;;;;;;;;;;20917285;28;20210;-70
2022/12/08 17:57:09;;;;;;;15.70;8.50;;;;;;;;;;20972917;28;20233;-73
2022/12/08 18:07:11;;;;;;;14.70;9.27;;;;;;;;;;20966979;28;20205;-70
2022/12/08 18:17:13;;;;;;;13.77;8.80;;;5.60;95.50;;;;;;20928761;28;20235;-67
2022/12/08 18:27:15;;;;;;;14.10;9.13;;;5.60;95.50;;;;;;20922674;28;20206;-72
2022/12/08 18:37:17;;;;;;;19.37;12.07;;;;;;;;;;20909346;28;20237;-69
2022/12/08 18:47:19;;;;;;;19.70;11.10;;;;;;;;;;20854977;28;20198;-66
2022/12/08 18:57:21;;;;;;;15.93;9.40;;;5.50;95.40;;;;;;20852719;28;20237;-66
2022/12/08 19:07:23;;;;;;;20.40;11.33;;;;;;;;;;20884947;28;20230;-68
2022/12/08 19:17:25;;;;;;;16.27;8.83;;;;;;;;;;20917354;28;20234;-73
2022/12/08 19:27:27;;;;;;;15.50;9.80;;;5.50;95.40;;;;;;20916831;28;20264;-68
2022/12/08 19:37:29;;;;;;;20.50;12.10;;;5.50;95.30;;;;;;20862127;28;20260;-68
2022/12/08 19:47:31;;;;;;;19.27;11.93;;;5.50;95.40;;;;;;20875002;28;20269;-68
2022/12/08 19:57:33;;;;;;;23.27;12.90;;;5.40;95.40;;;;;;20915888;28;20582;-65
2022/12/08 20:07:34;;;;;;;16.67;10.30;;;5.40;95.40;;;;;;20915352;28;20204;-68
2022/12/08 20:17:37;;;;;;;18.33;9.93;;;5.40;95.40;;;;;;20914925;28;20285;-68
2022/12/08 20:27:39;;;;;;;17.57;10.10;;;5.80;95.50;;;;;;20900429;28;20205;-68
2022/12/08 20:37:42;;;;;;;17.57;10.07;;;5.40;95.40;;;;;;20911255;28;20234;-67
2022/12/08 20:47:43;;;;;;;15.83;10.67;;;5.70;95.60;;;;;;20913479;28;20237;-68
2022/12/08 20:57:45;;;;;;;16.73;10.13;;;;;;;;;;20911921;28;20234;-67
2022/12/08 21:07:48;;;;;;;19.60;11.90;;;;;;;;;;20912192;28;20613;-67
2022/12/08 21:17:50;;;;;;;23.00;13.37;;;;;;;;;;20911353;28;20263;-67
2022/12/08 21:27:52;;;;;;;20.53;12.50;;;5.10;95.70;;;;;;20898230;28;20279;-66
2022/12/08 21:37:54;;;;;;;18.17;12.13;;;;;;;;;;20836841;28;20314;-67
2022/12/08 21:47:57;;;;;;;23.10;12.73;;;5.20;95.80;;;;;;20834266;28;20210;-67
2022/12/08 21:58:00;;;;;;;30.57;15.77;;;5.20;95.90;;;;;;20862937;28;20233;-66
2022/12/08 22:08:03;;;;;;;30.40;16.10;;;;;;;;;;20841338;28;20562;-65
2022/12/08 22:18:05;;;;;;;28.57;15.40;;;5.20;96.20;;;;;;20861964;28;20235;-66
2022/12/08 22:28:07;;;;;;;26.63;15.13;;;5.10;96.20;;;;;;20923478;28;20216;-68
2022/12/08 22:38:09;;;;;;;26.00;14.20;;;5.10;96.20;;;;;;20911740;28;20240;-67
2022/12/08 22:48:11;;;;;;;19.97;11.37;;;;;;;;;;20872696;28;20264;-67
2022/12/08 22:58:13;;;;;;;19.73;11.53;;;5.20;96.40;;;;;;20867004;28;20778;-68
2022/12/08 23:08:16;;;;;;;20.30;11.83;;;5.20;96.40;;;;;;20837164;28;20229;-66
2022/12/08 23:18:18;;;;;;;20.77;11.97;;;5.10;96.30;;;;;;20835625;28;20241;-67
2022/12/08 23:28:20;;;;;;;21.10;12.20;;;;;;;;;;20836071;28;20240;-67
2022/12/08 23:38:23;;;;;;;21.77;12.73;;;;;;;;;;20834896;28;20247;-66
2022/12/08 23:48:26;;;;;;;20.93;11.80;;;5.20;96.40;;;;;;20833984;28;20222;-67
2022/12/08 23:58:32;;;;;;;28.27;14.73;;;5.10;96.40;;;;;;20833251;28;20651;-66
